»·PEaware :: ASA158 KPDX-KGEG

ASA158 :: KPDX-KGEG

FLIGHT INFORMATION

Flight Status: Arrived
Operator:
Alaska Airlines
More flights by this operator :: More flights under this callsign
Pilot: Anonymous 12234 (12234)
Aircraft: BOEING 737-200
(B732)
More flights by this aircraft type
Origin: KPDX Portland Intl
United States
Destination: KGEG Spokane Intl
United States
More flights between these airports :: More routes between these airports
Route: +PTLD1 BTG J136 YKM MWH ZOOMR1
File this flight plan on PilotEdge
Remarks:
Altitude:
(Current/Filed)
23,000ft
Speed:
(Current/Filed)
440kts
Departed: 11-Apr-18 08:30 PM
Arrived: 11-Apr-18 09:22 PM
Distance/Time
Traveled:
242nm/0:52
Distance/Time
To Go:
Arrived

Flight Plot

Page will automatically refresh every two minutes.

Flight plan parsing failed; only flown route is shown


Map Options




Map Legend


Flown Route
Filed Route
Departure Airport
Arrival Airport
Navaid (VOR, NDB)
Fix

Horizontal Profiles

Position Reports

Time Latitude Longitude Heading Altitude Ground
Speed
11-Apr-18 20:07 45.587550 -122.594265 52 38ft 0kts
11-Apr-18 20:08 45.587550 -122.594265 52 38ft 0kts
11-Apr-18 20:09 45.587550 -122.594265 52 38ft 0kts
11-Apr-18 20:10 45.587550 -122.594265 52 38ft 0kts
11-Apr-18 20:11 45.587550 -122.594265 52 38ft 0kts
11-Apr-18 20:12 45.587550 -122.594265 52 38ft 0kts
11-Apr-18 20:13 45.587550 -122.594265 52 38ft 0kts
11-Apr-18 20:14 45.587550 -122.594265 52 38ft 0kts
11-Apr-18 20:15 45.587550 -122.594265 52 38ft 0kts
11-Apr-18 20:16 45.587550 -122.594265 51 38ft 0kts
11-Apr-18 20:17 45.587550 -122.594265 51 38ft 0kts
11-Apr-18 20:18 45.587550 -122.594265 51 38ft 0kts
11-Apr-18 20:19 45.587550 -122.594265 51 38ft 0kts
11-Apr-18 20:20 45.587487 -122.594382 52 38ft 2kts
11-Apr-18 20:21 45.587129 -122.595046 59 38ft 2kts
11-Apr-18 20:22 45.587132 -122.595531 118 38ft 0kts
11-Apr-18 20:23 45.587132 -122.595531 118 38ft 0kts
11-Apr-18 20:24 45.587132 -122.595531 118 38ft 0kts
11-Apr-18 20:25 45.586625 -122.594395 126 38ft 13kts
11-Apr-18 20:26 45.583314 -122.587879 118 38ft 22kts
11-Apr-18 20:27 45.581734 -122.583886 134 38ft 0kts
11-Apr-18 20:28 45.581251 -122.583603 178 38ft 11kts
11-Apr-18 20:29 45.588551 -122.604389 299 121ft 160kts
11-Apr-18 20:30 45.610700 -122.660107 297 2059ft 210kts
11-Apr-18 20:31 45.642966 -122.742923 301 4769ft 252kts
11-Apr-18 20:32 45.705672 -122.742022 52 7592ft 287kts
11-Apr-18 20:33 45.737856 -122.641228 67 10151ft 300kts
11-Apr-18 20:34 45.771811 -122.532847 61 11751ft 341kts
11-Apr-18 20:35 45.815891 -122.423561 61 13867ft 352kts
11-Apr-18 20:36 45.858554 -122.315990 63 15635ft 362kts
11-Apr-18 20:37 45.905709 -122.195735 62 17347ft 373kts
11-Apr-18 20:38 45.956163 -122.068170 62 18942ft 383kts
11-Apr-18 20:39 46.007260 -121.938774 62 20355ft 392kts
11-Apr-18 20:40 46.060729 -121.802829 63 21661ft 401kts
11-Apr-18 20:41 46.113302 -121.669235 62 22720ft 412kts
11-Apr-18 20:42 46.156116 -121.560870 62 22734ft 438kts
11-Apr-18 20:43 46.206065 -121.432884 64 22730ft 462kts
11-Apr-18 20:44 46.238056 -121.343905 65 22726ft 470kts
11-Apr-18 20:45 46.253587 -121.300503 65 22723ft 471kts
11-Apr-18 20:46 46.302018 -121.168965 64 22713ft 475kts
11-Apr-18 20:47 46.363871 -121.003486 63 22697ft 476kts
11-Apr-18 20:48 46.423470 -120.843718 63 22698ft 476kts
11-Apr-18 20:49 46.481900 -120.686114 63 22699ft 477kts
11-Apr-18 20:50 46.543460 -120.517254 63 22701ft 478kts
11-Apr-18 20:51 46.618205 -120.363636 33 22720ft 479kts
11-Apr-18 20:52 46.694390 -120.240683 51 22699ft 479kts
11-Apr-18 20:53 46.776067 -120.088216 54 22697ft 480kts
11-Apr-18 20:54 46.859784 -119.937373 51 22696ft 481kts
11-Apr-18 20:55 46.939966 -119.786055 54 22709ft 480kts
11-Apr-18 20:56 47.025623 -119.638632 50 22720ft 477kts
11-Apr-18 20:57 47.107407 -119.497909 50 22719ft 472kts
11-Apr-18 20:58 47.188578 -119.358625 51 22717ft 467kts
11-Apr-18 20:59 47.245208 -119.228010 79 22665ft 451kts
11-Apr-18 21:00 47.267937 -119.052984 74 20274ft 433kts
11-Apr-18 21:01 47.302153 -118.899511 75 18480ft 405kts
11-Apr-18 21:02 47.335342 -118.746660 76 16432ft 385kts
11-Apr-18 21:03 47.366847 -118.599847 75 14262ft 371kts
11-Apr-18 21:04 47.396959 -118.458599 75 12151ft 357kts
11-Apr-18 21:05 47.420731 -118.342306 80 11992ft 309kts
11-Apr-18 21:06 47.441840 -118.221969 77 12006ft 313kts
11-Apr-18 21:07 47.467180 -118.096523 76 12002ft 326kts
11-Apr-18 21:08 47.494141 -117.967417 75 12000ft 331kts
11-Apr-18 21:09 47.521091 -117.838704 75 11995ft 323kts
11-Apr-18 21:10 47.577197 -117.739313 44 11997ft 321kts
11-Apr-18 21:11 47.643321 -117.653686 43 11459ft 320kts
11-Apr-18 21:12 47.710250 -117.567131 34 10090ft 304kts
11-Apr-18 21:13 47.777951 -117.504515 33 9104ft 279kts
11-Apr-18 21:14 47.842258 -117.444273 43 7424ft 277kts
11-Apr-18 21:15 47.837127 -117.349312 133 6050ft 261kts
11-Apr-18 21:16 47.773321 -117.325979 194 5180ft 246kts
11-Apr-18 21:17 47.724037 -117.378450 224 4901ft 203kts
11-Apr-18 21:18 47.686324 -117.435122 226 3916ft 176kts
11-Apr-18 21:19 47.656518 -117.480025 226 3055ft 149kts
11-Apr-18 21:20 47.627797 -117.523438 226 2344ft 138kts
11-Apr-18 21:21 47.613783 -117.544604 239 2381ft 26kts
11-Apr-18 21:22 47.617203 -117.543425 44 2372ft 19kts
11-Apr-18 21:23 47.621481 -117.537129 24 2361ft 18kts
11-Apr-18 21:24 47.623385 -117.539256 0 2364ft 0kts
11-Apr-18 21:25 47.623387 -117.539256 0 2364ft 0kts
11-Apr-18 21:26 47.623387 -117.539256 0 2365ft 0kts

Navigation Log

Ident Type
Flight plan parsing failed, navigation log unavailable